F/V Vivaldi — FQLH — position and weather

sailwx.info

Track history (hours):
 
Tides and Currents Weather Stations Pressure Air Temp Water Temp Dewpoint Dewpoint Depression Visibility Wind Speed Wind Dir Waves Ship Positions

F/V Vivaldi

Last reported at 2018-Jun-10 20:46 UTC. Time now 2018-Jun-18 09:35 UTC.
Position N 51°22' W 010°08'.

Length 23 m.

Type: Fishing. MMSI: 227981000.

Date/timePositionNaut miles runAvg speedWind from/ knotsBaromVisibWave heightAir tempDewpointWater temp
2018-Jun-10 20:46N 51°22' W 010°08'3 9.7
2018-Jun-10 20:28N 51°25' W 010°06'5 9.9
2018-Jun-10 20:00N 51°29' W 010°02'710.4
2018-Jun-10 19:19N 51°35' W 009°57'310.2
2018-Jun-10 18:59N 51°38' W 009°55'1 1.1
2018-Jun-10 18:27N 51°39' W 009°54'0 0.0
2018-Jun-10 18:00N 51°39' W 009°54'0 0.0
2018-Jun-10 17:26N 51°39' W 009°54'0 0.0
2018-Jun-10 16:57N 51°39' W 009°54'0 0.0
2018-Jun-10 16:25N 51°39' W 009°54'0 0.0
2018-Jun-10 15:56N 51°39' W 009°54'0 0.0
2018-Jun-10 15:19N 51°39' W 009°54'0 0.0
2018-Jun-10 14:58N 51°39' W 009°54'0 0.0
2018-Jun-10 14:28N 51°39' W 009°54'0 0.0
2018-Jun-10 13:28N 51°39' W 009°54'0 0.0
2018-Jun-10 13:00N 51°39' W 009°54'0 0.0
2018-Jun-10 12:18N 51°39' W 009°54'2 6.8
2018-Jun-10 11:59N 51°37' W 009°56'0 0.6
2018-Jun-10 11:29N 51°37' W 009°55'5 9.6
2018-Jun-10 11:00N 51°34' W 010°01'10 9.2
2018-Jun-10 09:52N 51°33' W 010°18'4 9.4
2018-Jun-10 09:26N 51°33' W 010°25'6 9.3
2018-Jun-10 08:44N 51°33' W 010°35'15 9.4
2018-Jun-10 07:07N 51°33' W 010°59'3 9.3
2018-Jun-10 06:50N 51°34' W 011°04'  
2018-Jun-02 05:50N 51°33' W 010°17'510.0
2018-Jun-02 05:19N 51°33' W 010°09'3 9.9
2018-Jun-02 05:00N 51°34' W 010°04'5 9.6
2018-Jun-02 04:29N 51°36' W 009°57'3 6.7
2018-Jun-02 03:59N 51°39' W 009°54'0 0.0
2018-Jun-02 03:29N 51°39' W 009°54'0 0.0
2018-Jun-02 02:57N 51°39' W 009°54'0 0.0
2018-Jun-02 02:28N 51°39' W 009°54'0 0.0
2018-Jun-02 01:58N 51°39' W 009°54'0 0.0
2018-Jun-02 01:29N 51°39' W 009°54'  
Track history (hours):
 
Tides and Currents Weather Stations Pressure Air Temp Water Temp Dewpoint Dewpoint Depression Visibility Wind Speed Wind Dir Waves Ship Positions

F/V Vivaldi

Last reported at 2018-Jun-10 20:46 UTC. Time now 2018-Jun-18 09:35 UTC.
Position N 51°22' W 010°08'.

Length 23 m.

Type: Fishing. MMSI: 227981000.

Date/timePositionNaut miles runAvg speedWind from/ knotsBaromVisibWave heightAir tempDewpointWater temp
2018-Jun-10 20:46N 51°22' W 010°08'3 9.7
2018-Jun-10 20:28N 51°25' W 010°06'5 9.9
2018-Jun-10 20:00N 51°29' W 010°02'710.4
2018-Jun-10 19:19N 51°35' W 009°57'310.2
2018-Jun-10 18:59N 51°38' W 009°55'1 1.1
2018-Jun-10 18:27N 51°39' W 009°54'0 0.0
2018-Jun-10 18:00N 51°39' W 009°54'0 0.0
2018-Jun-10 17:26N 51°39' W 009°54'0 0.0
2018-Jun-10 16:57N 51°39' W 009°54'0 0.0
2018-Jun-10 16:25N 51°39' W 009°54'0 0.0
2018-Jun-10 15:56N 51°39' W 009°54'0 0.0
2018-Jun-10 15:19N 51°39' W 009°54'0 0.0
2018-Jun-10 14:58N 51°39' W 009°54'0 0.0
2018-Jun-10 14:28N 51°39' W 009°54'0 0.0
2018-Jun-10 13:28N 51°39' W 009°54'0 0.0
2018-Jun-10 13:00N 51°39' W 009°54'0 0.0
2018-Jun-10 12:18N 51°39' W 009°54'2 6.8
2018-Jun-10 11:59N 51°37' W 009°56'0 0.6
2018-Jun-10 11:29N 51°37' W 009°55'5 9.6
2018-Jun-10 11:00N 51°34' W 010°01'10 9.2
2018-Jun-10 09:52N 51°33' W 010°18'4 9.4
2018-Jun-10 09:26N 51°33' W 010°25'6 9.3
2018-Jun-10 08:44N 51°33' W 010°35'15 9.4
2018-Jun-10 07:07N 51°33' W 010°59'3 9.3
2018-Jun-10 06:50N 51°34' W 011°04'  
2018-Jun-02 05:50N 51°33' W 010°17'510.0
2018-Jun-02 05:19N 51°33' W 010°09'3 9.9
2018-Jun-02 05:00N 51°34' W 010°04'5 9.6
2018-Jun-02 04:29N 51°36' W 009°57'3 6.7
2018-Jun-02 03:59N 51°39' W 009°54'0 0.0
2018-Jun-02 03:29N 51°39' W 009°54'0 0.0
2018-Jun-02 02:57N 51°39' W 009°54'0 0.0
2018-Jun-02 02:28N 51°39' W 009°54'0 0.0
2018-Jun-02 01:58N 51°39' W 009°54'0 0.0
2018-Jun-02 01:29N 51°39' W 009°54'  

Dump ship's entire track history